Time;durP1;ratioP1;P1;durP2;ratioP2;P2;SDS_P1;SDS_P2;PMS_P1;PMS_P2;Temp;Humidity;BMP_temperature;BMP_pressure;BME280_temperature;BME280_humidity;BME280_pressure;Samples;Min_cycle;Max_cycle;Signal;HPM_P1;HPM_P2
2022/05/19 00:01:29;;;;;;;;;;;;;;;-144.99;71.42;52223.88;4979424;28;19935;-71
2022/05/19 00:03:57;;;;;;;;;;;;;;;-144.99;71.75;52217.78;4986519;28;20386;-73
2022/05/19 00:06:23;;;;;;;;;;;;;;;-144.99;71.94;52223.88;4996818;28;19926;-72
2022/05/19 00:08:49;;;;;;;;;;;;;;;-144.99;71.85;52244.28;4987601;28;19932;-73
2022/05/19 00:11:17;;;;;;;;;;;;;;;-144.99;72.04;52187.19;4973737;28;19926;-74
2022/05/19 00:13:44;;;;;;;;;;;;;;;-144.99;72.29;52201.47;4971797;28;19933;-74
2022/05/19 00:16:10;;;;;;;;;;;;;;;-144.99;72.28;52223.88;4973405;28;19927;-73
2022/05/19 00:18:37;;;;;;;;;;;;;;;-144.99;72.31;52199.44;4982218;28;19972;-73
2022/05/19 00:21:05;;;;;;;;;;;;;;;-144.99;72.59;52227.97;4977893;28;19933;-73
2022/05/19 00:23:31;;;;;;;;;;;;;;;-144.99;72.63;52219.81;4976345;28;20293;-73
2022/05/19 00:25:58;;;;;;;;;;;;;;;-144.99;72.67;52238.16;4982924;28;19933;-74
2022/05/19 00:28:24;;;;;;;;;;;;;;;-144.99;72.63;52207.59;4994057;28;19938;-73
2022/05/19 00:30:50;;;;;;;;;;;;;;;-144.99;72.70;52197.41;4985417;28;20328;-74
2022/05/19 00:33:16;;;;;;;;;;;;;;;-144.99;72.88;52232.03;4974531;28;19926;-74
2022/05/19 00:35:43;;;;;;;;;;;;;;;-144.99;72.83;52230.00;4976331;28;19926;-73
2022/05/19 00:38:10;;;;;;;;;;;;;;;-144.99;72.88;52215.75;4986226;28;19934;-73
2022/05/19 00:40:37;;;;;;;;;;;;;;;-144.99;72.99;52183.13;4973166;28;19927;-73
2022/05/19 00:43:04;;;;;;;;;;;;;;;-144.99;73.00;52199.44;4980702;28;20316;-74
2022/05/19 00:45:38;;;;;;;;;;;;;;;-144.99;73.09;52227.97;4977573;28;20313;-73
2022/05/19 00:48:06;;;;;;;;;;;;;;;-144.99;73.24;52232.03;4983690;28;20369;-73
2022/05/19 00:50:35;;;;;;;;;;;;;;;-144.99;73.48;52199.44;4980894;28;19969;-73
2022/05/19 00:53:05;;;;;;;;;;;;;;;-144.99;73.76;52219.81;4972264;28;20021;-72
2022/05/19 00:55:34;;;;;;;;;;;;;;;-144.99;73.93;52217.78;4981547;28;19926;-73
2022/05/19 00:58:04;;;;;;;;;;;;;;;-144.99;73.93;52252.44;4969610;28;19927;-73
2022/05/19 01:00:30;;;;;;;;;;;;;;;-144.99;74.23;52256.50;4968951;28;19930;-73
2022/05/19 01:02:58;;;;;;;;;;;;;;;-144.99;74.64;52211.66;4971004;28;19972;-72
2022/05/19 01:05:28;;;;;;;;;;;;;;;-144.99;75.14;52236.13;4976372;28;19926;-73
2022/05/19 01:07:57;;;;;;;;;;;;;;;-144.99;75.51;52244.28;4969945;28;20029;-73
2022/05/19 01:10:23;;;;;;;;;;;;;;;-144.99;75.74;52236.13;4978980;28;19926;-73
2022/05/19 01:12:52;;;;;;;;;;;;;;;-144.99;75.92;52268.72;4978944;28;20098;-72
2022/05/19 01:15:21;;;;;;;;;;;;;;;-144.99;76.45;52211.66;4976623;28;20394;-73
2022/05/19 01:17:48;;;;;;;;;;;;;;;-144.99;77.03;52223.88;4975740;28;20033;-73
2022/05/19 01:20:17;;;;;;;;;;;;;;;-144.99;77.60;52230.00;4970916;28;19930;-74
2022/05/19 01:22:47;;;;;;;;;;;;;;;-144.99;77.77;52199.44;4973885;28;19926;-74
2022/05/19 01:25:17;;;;;;;;;;;;;;;-144.99;78.08;52236.13;4981462;28;20049;-72
2022/05/19 01:27:45;;;;;;;;;;;;;;;-144.99;77.81;52244.28;4985022;28;19930;-73
2022/05/19 01:30:12;;;;;;;;;;;;;;;-144.99;77.78;52260.56;4980903;28;20357;-73
2022/05/19 01:32:38;;;;;;;;;;;;;;;-144.99;77.86;52203.50;4972467;28;19927;-73
2022/05/19 01:35:05;;;;;;;;;;;;;;;-144.99;77.76;52195.34;4972232;28;20405;-73
2022/05/19 01:37:32;;;;;;;;;;;;;;;-144.99;77.80;52258.53;4972549;28;19930;-73
2022/05/19 01:40:01;;;;;;;;;;;;;;;-144.99;77.67;52203.50;4972602;28;20401;-73
2022/05/19 01:42:34;;;;;;;;;;;;;;;-144.99;77.81;52193.31;4972681;28;19935;-72
2022/05/19 01:45:06;;;;;;;;;;;;;;;-144.99;78.01;52203.50;4972557;28;19937;-72
2022/05/19 01:47:35;;;;;;;;;;;;;;;-144.99;78.47;52227.97;4971990;28;19958;-73
2022/05/19 01:50:06;;;;;;;;;;;;;;;-144.99;78.68;52232.03;4977922;28;19952;-74
2022/05/19 01:52:36;;;;;;;;;;;;;;;-144.99;78.96;52230.00;4971562;28;20006;-73
2022/05/19 01:55:06;;;;;;;;;;;;;;;-144.99;79.49;52232.03;4972362;28;20361;-72
2022/05/19 01:57:35;;;;;;;;;;;;;;;-144.99;79.78;52197.41;4978142;28;19933;-72
2022/05/19 02:00:04;;;;;;;;;;;;;;;-144.99;80.09;52232.03;4972448;28;19926;-73
2022/05/19 02:02:36;;;;;;;;;;;;;;;-144.99;80.02;52260.56;4972018;28;19926;-74
2022/05/19 02:05:05;;;;;;;;;;;;;;;-144.99;79.98;52244.28;4962535;28;19932;-72
2022/05/19 02:07:33;;;;;;;;;;;;;;;-144.99;80.03;52244.28;4976753;28;19925;-73
2022/05/19 02:10:00;;;;;;;;;;;;;;;-144.99;80.15;52248.34;4980384;28;19926;-72
2022/05/19 02:12:28;;;;;;;;;;;;;;;-144.99;80.20;52264.66;4986987;28;20382;-72
2022/05/19 02:14:56;;;;;;;;;;;;;;;-144.99;80.39;52244.28;4987842;28;20019;-74
2022/05/19 02:17:25;;;;;;;;;;;;;;;-144.99;80.57;52227.97;4982955;28;19926;-73
2022/05/19 02:19:52;;;;;;;;;;;;;;;-144.99;80.41;52242.22;4973873;28;20014;-73
2022/05/19 02:22:20;;;;;;;;;;;;;;;-144.99;80.43;52219.81;4967110;28;20302;-73
2022/05/19 02:24:51;;;;;;;;;;;;;;;-144.99;80.29;52268.72;4981510;28;19926;-73
2022/05/19 02:27:32;;;;;;;;;;;;;;;-144.99;80.27;52264.66;4976136;28;19926;-73
2022/05/19 02:30:00;;;;;;;;;;;;;;;-144.99;80.40;52244.28;4983319;28;19929;-74
2022/05/19 02:32:28;;;;;;;;;;;;;;;-144.99;80.91;52244.28;4979027;28;19925;-74
2022/05/19 02:34:54;;;;;;;;;;;;;;;-144.99;81.33;52258.53;4976029;28;19974;-73
2022/05/19 02:37:21;;;;;;;;;;;;;;;-144.99;81.48;52242.22;4980212;28;19934;-73
2022/05/19 02:39:47;;;;;;;;;;;;;;;-144.99;81.56;52256.50;4979520;28;19932;-74
2022/05/19 02:42:16;;;;;;;;;;;;;;;-144.99;82.09;52248.34;4969832;28;19930;-74
2022/05/19 02:44:45;;;;;;;;;;;;;;;-144.99;82.92;52248.34;4983347;28;19932;-74
2022/05/19 02:47:11;;;;;;;;;;;;;;;-144.99;83.13;52252.44;4976895;28;19930;-72
2022/05/19 02:49:39;;;;;;;;;;;;;;;-144.99;83.09;52248.34;4976355;28;19925;-73
2022/05/19 02:52:05;;;;;;;;;;;;;;;-144.99;83.47;52246.31;4974654;28;19927;-72
2022/05/19 02:54:32;;;;;;;;;;;;;;;-144.99;83.61;52244.28;4979499;28;19926;-73
2022/05/19 02:56:58;;;;;;;;;;;;;;;-144.99;84.43;52248.34;4967526;28;19930;-74
2022/05/19 02:59:24;;;;;;;;;;;;;;;-144.99;84.43;52227.97;4972011;28;19933;-73
2022/05/19 03:01:50;;;;;;;;;;;;;;;-144.99;85.16;52244.28;4960094;28;19985;-74
2022/05/19 03:04:17;;;;;;;;;;;;;;;-144.99;85.50;52236.13;4976596;28;19926;-73
2022/05/19 03:06:46;;;;;;;;;;;;;;;-144.99;85.59;52234.09;4971684;28;19926;-73
2022/05/19 03:09:12;;;;;;;;;;;;;;;-144.99;86.09;52289.13;4985299;28;19925;-74
2022/05/19 03:11:39;;;;;;;;;;;;;;;-144.99;86.25;52242.22;4983023;28;19932;-73
2022/05/19 03:14:05;;;;;;;;;;;;;;;-144.99;86.29;52278.91;4987111;28;19937;-74
2022/05/19 03:16:31;;;;;;;;;;;;;;;-144.99;86.32;52270.78;4990288;28;19926;-74
2022/05/19 03:18:58;;;;;;;;;;;;;;;-144.99;86.37;52272.81;4975509;28;20409;-73
2022/05/19 03:21:24;;;;;;;;;;;;;;;-144.99;86.67;52248.34;4965863;28;19925;-72
2022/05/19 03:23:52;;;;;;;;;;;;;;;-144.99;86.76;52260.56;4974158;28;19930;-72
2022/05/19 03:26:18;;;;;;;;;;;;;;;-144.99;87.41;52262.63;4978250;28;19934;-72
2022/05/19 03:28:44;;;;;;;;;;;;;;;-144.99;87.43;52246.31;4980809;28;20408;-73
2022/05/19 03:31:11;;;;;;;;;;;;;;;-144.99;87.27;52264.66;4975126;28;19931;-72
2022/05/19 03:33:37;;;;;;;;;;;;;;;-144.99;87.11;52219.81;4974418;28;19972;-73
2022/05/19 03:36:04;;;;;;;;;;;;;;;-144.99;87.14;52301.34;4975945;28;20408;-74
2022/05/19 03:38:30;;;;;;;;;;;;;;;-144.99;87.31;52268.72;4988356;28;19931;-73
2022/05/19 03:40:58;;;;;;;;;;;;;;;-144.99;87.05;52260.56;4979292;28;19937;-73
2022/05/19 03:43:24;;;;;;;;;;;;;;;-144.99;87.11;52266.69;4989582;28;19930;-73
2022/05/19 03:45:51;;;;;;;;;;;;;;;-144.99;86.63;52227.97;4981564;28;19930;-73
2022/05/19 03:48:17;;;;;;;;;;;;;;;-144.99;86.54;52268.72;4973955;28;19927;-72
2022/05/19 03:50:44;;;;;;;;;;;;;;;-144.99;86.92;52262.63;4985970;28;19926;-72
2022/05/19 03:53:10;;;;;;;;;;;;;;;-144.99;87.14;52248.34;4976875;28;19937;-73
2022/05/19 03:55:37;;;;;;;;;;;;;;;-144.99;87.08;52236.13;4982124;28;19949;-76
2022/05/19 03:58:07;;;;;;;;;;;;;;;-144.99;86.67;52240.19;4981111;28;19941;-76
2022/05/19 04:00:34;;;;;;;;;;;;;;;-144.99;87.02;52260.56;4987615;28;19926;-76
2022/05/19 04:03:01;;;;;;;;;;;;;;;-144.99;87.11;52242.22;4981151;28;19929;-75
2022/05/19 04:05:28;;;;;;;;;;;;;;;-144.99;87.34;52242.22;4984532;28;19933;-73
2022/05/19 04:07:54;;;;;;;;;;;;;;;-144.99;87.05;52232.03;4978910;28;19926;-72
2022/05/19 04:10:21;;;;;;;;;;;;;;;-144.99;87.11;52270.78;4987943;28;19934;-72
2022/05/19 04:12:47;;;;;;;;;;;;;;;-144.99;87.16;52252.44;4987589;28;20002;-72
2022/05/19 04:15:15;;;;;;;;;;;;;;;-144.99;87.04;52225.94;4977677;28;19927;-74
2022/05/19 04:17:41;;;;;;;;;;;;;;;-144.99;86.42;52280.97;4981140;28;19961;-74
2022/05/19 04:20:11;;;;;;;;;;;;;;;-144.99;86.86;52236.13;4989261;28;19925;-72
2022/05/19 04:22:37;;;;;;;;;;;;;;;-144.99;87.35;52256.50;4986107;28;19926;-73
2022/05/19 04:25:04;;;;;;;;;;;;;;;-144.99;87.84;52252.44;5000107;28;19933;-73
2022/05/19 04:27:32;;;;;;;;;;;;;;;-144.99;87.64;52236.13;4994407;28;19941;-73
2022/05/19 04:29:58;;;;;;;;;;;;;;;-144.99;88.23;52219.81;5005201;28;20373;-73
2022/05/19 04:32:26;;;;;;;;;;;;;;;-144.99;88.20;52227.97;5002232;28;19925;-73
2022/05/19 04:34:52;;;;;;;;;;;;;;;-144.99;88.77;52252.44;4983230;28;19933;-72
2022/05/19 04:37:19;;;;;;;;;;;;;;;-144.99;88.28;52236.13;5010197;22;19937;-74
2022/05/19 04:39:45;;;;;;;;;;;;;;;-144.99;88.09;52223.88;4988051;28;19932;-75
2022/05/19 04:42:13;;;;;;;;;;;;;;;-144.99;87.71;52240.19;4996118;28;19933;-78
2022/05/19 04:44:39;;;;;;;;;;;;;;;-144.99;87.51;52195.34;4997704;28;19934;-76
2022/05/19 04:47:06;;;;;;;;;;;;;;;-144.99;87.28;52236.13;4993157;28;19925;-74
2022/05/19 04:49:34;;;;;;;;;;;;;;;-144.99;87.04;52217.78;4996125;28;19936;-75
2022/05/19 04:52:00;;;;;;;;;;;;;;;-144.99;86.74;52236.13;4991122;28;19934;-76
2022/05/19 04:54:27;;;;;;;;;;;;;;;-144.99;86.19;52248.34;4991825;28;19933;-74
2022/05/19 04:56:53;;;;;;;;;;;;;;;-144.99;85.96;52201.47;4989007;28;20037;-74
2022/05/19 04:59:19;;;;;;;;;;;;;;;-144.99;85.60;52223.88;4992561;28;19930;-75
2022/05/19 05:01:47;;;;;;;;;;;;;;;-144.99;85.38;52248.34;4984143;28;19933;-75
2022/05/19 05:04:13;;;;;;;;;;;;;;;-144.99;85.91;52234.09;4982924;28;19930;-74
2022/05/19 05:06:41;;;;;;;;;;;;;;;-144.99;85.97;52244.28;4985612;28;19937;-73
2022/05/19 05:09:07;;;;;;;;;;;;;;;-144.99;85.46;52215.75;4992212;28;20040;-75
2022/05/19 05:11:34;;;;;;;;;;;;;;;-144.99;84.96;52203.50;4992612;28;20213;-72
2022/05/19 05:14:00;;;;;;;;;;;;;;;-144.99;84.42;52236.13;4992468;28;19936;-73
2022/05/19 05:16:27;;;;;;;;;;;;;;;-144.99;83.55;52179.06;4293801;28;10000715;-77
2022/05/19 05:18:53;;;;;;;;;;;;;;;-144.99;82.68;52215.75;4985140;28;20312;-77
2022/05/19 05:21:20;;;;;;;;;;;;;;;-144.99;82.32;52223.88;4990217;28;19930;-76
2022/05/19 05:23:47;;;;;;;;;;;;;;;-144.99;81.95;52193.31;4986926;28;19940;-77
2022/05/19 05:26:14;;;;;;;;;;;;;;;-144.99;81.42;52211.66;4976216;28;20400;-76
2022/05/19 05:28:40;;;;;;;;;;;;;;;-144.99;81.36;52219.81;4983566;28;19941;-76
2022/05/19 05:31:06;;;;;;;;;;;;;;;-144.99;80.20;52183.13;4988910;28;20007;-79
2022/05/19 05:33:33;;;;;;;;;;;;;;;-144.99;79.72;52195.34;4981806;28;19930;-76
2022/05/19 05:35:59;;;;;;;;;;;;;;;-144.99;78.83;52191.28;4981940;28;19929;-75
2022/05/19 05:38:25;;;;;;;;;;;;;;;-144.99;78.26;52187.19;4987065;28;19936;-75
2022/05/19 05:40:53;;;;;;;;;;;;;;;-144.99;77.72;52223.88;4975964;28;19925;-73
2022/05/19 05:43:20;;;;;;;;;;;;;;;-144.99;76.58;52227.97;4990113;28;19925;-74
2022/05/19 05:45:47;;;;;;;;;;;;;;;-144.99;77.37;52195.34;4982755;28;19929;-75
2022/05/19 05:48:14;;;;;;;;;;;;;;;-144.99;77.77;52207.59;4985788;28;19961;-75
2022/05/19 05:50:40;;;;;;;;;;;;;;;-144.99;77.89;52203.50;4993059;28;19940;-75
2022/05/19 05:53:07;;;;;;;;;;;;;;;-144.99;77.09;52211.66;5000634;28;20140;-77
2022/05/19 05:55:34;;;;;;;;;;;;;;;-144.99;77.07;52199.44;4990546;28;20405;-74
2022/05/19 05:58:06;;;;;;;;;;;;;;;-144.99;76.25;52183.13;4989385;28;20230;-76
2022/05/19 06:00:32;;;;;;;;;;;;;;;-144.99;76.13;52205.53;4990029;28;19949;-76
2022/05/19 06:02:58;;;;;;;;;;;;;;;-144.99;76.16;52227.97;4986193;28;19933;-76
2022/05/19 06:05:25;;;;;;;;;;;;;;;-144.99;75.78;52177.00;4989126;28;19933;-76
2022/05/19 06:07:51;;;;;;;;;;;;;;;-144.99;75.45;52236.13;4979343;28;19926;-74
2022/05/19 06:10:18;;;;;;;;;;;;;;;-144.99;75.76;52236.13;4987799;28;19930;-76
2022/05/19 06:12:44;;;;;;;;;;;;;;;-144.99;75.95;52174.97;4983322;28;19936;-76
2022/05/19 06:15:14;;;;;;;;;;;;;;;-144.99;76.15;52221.84;4989505;28;20277;-73
2022/05/19 06:17:40;;;;;;;;;;;;;;;-144.99;75.58;52205.53;4988176;28;20408;-73
2022/05/19 06:20:07;;;;;;;;;;;;;;;-144.99;76.48;52174.97;4988294;28;19965;-74
2022/05/19 06:22:34;;;;;;;;;;;;;;;-144.99;76.27;52174.97;4979931;28;19930;-75
2022/05/19 06:25:00;;;;;;;;;;;;;;;-144.99;75.84;52217.78;4988173;28;19930;-74
2022/05/19 06:27:26;;;;;;;;;;;;;;;-144.99;75.09;52193.31;4988204;28;19933;-73
2022/05/19 06:29:52;;;;;;;;;;;;;;;-144.99;75.29;52174.97;4988405;28;19926;-73
2022/05/19 06:32:21;;;;;;;;;;;;;;;-144.99;74.43;52158.66;4987934;28;20073;-71
2022/05/19 06:34:47;;;;;;;;;;;;;;;-144.99;73.31;52181.09;4988311;28;20416;-72
2022/05/19 06:37:14;;;;;;;;;;;;;;;-144.99;72.17;52166.81;4986897;28;19929;-72
2022/05/19 06:39:40;;;;;;;;;;;;;;;-144.99;71.90;52174.97;4988326;28;19950;-76
2022/05/19 06:42:14;;;;;;;;;;;;;;;-144.99;70.57;52174.97;4987570;28;20389;-74
2022/05/19 06:44:44;;;;;;;;;;;;;;;-144.99;68.98;52183.13;4988334;28;19929;-76
2022/05/19 06:47:13;;;;;;;;;;;;;;;-144.99;68.39;52183.13;4982917;28;19946;-74
2022/05/19 06:49:41;;;;;;;;;;;;;;;-144.99;66.85;52191.28;4987394;28;20297;-76
2022/05/19 06:52:10;;;;;;;;;;;;;;;-144.99;64.76;52162.75;4983775;28;19926;-76
2022/05/19 06:54:37;;;;;;;;;;;;;;;-144.99;64.85;52158.66;4987568;28;20464;-76
2022/05/19 06:57:03;;;;;;;;;;;;;;;-144.99;64.16;52146.44;4985072;28;20408;-75
2022/05/19 06:59:30;;;;;;;;;;;;;;;-144.99;62.65;52168.84;4988417;28;19926;-76
2022/05/19 07:01:56;;;;;;;;;;;;;;;-144.99;62.17;52146.44;4985233;28;20016;-75
2022/05/19 07:04:23;;;;;;;;;;;;;;;-144.99;61.02;52170.91;4986034;28;19934;-75
2022/05/19 07:06:52;;;;;;;;;;;;;;;-144.99;60.13;52174.97;4986248;28;19957;-73
2022/05/19 07:09:18;;;;;;;;;;;;;;;-144.99;60.99;52162.75;4979543;28;20473;-74
2022/05/19 07:11:45;;;;;;;;;;;;;;;-144.99;61.20;52136.25;4983007;28;20314;-74
2022/05/19 07:14:11;;;;;;;;;;;;;;;-144.99;61.17;52166.81;4988009;28;19937;-75
2022/05/19 07:16:38;;;;;;;;;;;;;;;-144.99;60.49;52124.03;4984659;28;19937;-74
2022/05/19 07:21:49;;;;;;;;;;;;;;;-144.99;60.53;52146.44;4990166;28;19941;-74
2022/05/19 07:24:17;;;;;;;;;;;;;;;-144.99;58.82;52150.53;4982474;28;19926;-74
2022/05/19 07:26:44;;;;;;;;;;;;;;;-144.99;59.56;52152.56;4989348;28;19929;-75
2022/05/19 07:29:10;;;;;;;;;;;;;;;-144.99;59.70;52191.28;4991599;28;19929;-75
2022/05/19 07:31:37;;;;;;;;;;;;;;;-144.99;59.10;52158.66;4990086;28;19938;-74
2022/05/19 07:34:04;;;;;;;;;;;;;;;-144.99;58.58;52117.91;4989464;28;19930;-74
2022/05/19 07:36:31;;;;;;;;;;;;;;;-144.99;57.98;52170.91;4990672;28;19941;-74
2022/05/19 07:38:59;;;;;;;;;;;;;;;-144.99;58.52;52128.09;4992009;28;20211;-75
2022/05/19 07:41:27;;;;;;;;;;;;;;;-144.99;58.12;52170.91;4991557;28;19937;-76
2022/05/19 07:43:55;;;;;;;;;;;;;;;-144.99;57.63;52130.13;4992066;28;19929;-76
2022/05/19 07:46:22;;;;;;;;;;;;;;;-144.99;57.45;52134.22;4988634;28;19937;-76
2022/05/19 07:48:48;;;;;;;;;;;;;;;-144.99;57.13;52115.88;4986708;28;19930;-75
2022/05/19 07:51:14;;;;;;;;;;;;;;;-144.99;55.28;52140.31;4989461;28;19933;-78
2022/05/19 07:53:41;;;;;;;;;;;;;;;-144.99;54.73;52148.47;4989893;28;19936;-76
2022/05/19 07:56:07;;;;;;;;;;;;;;;-144.99;54.08;52146.44;4991109;28;20439;-76
2022/05/19 07:58:35;;;;;;;;;;;;;;;-144.99;53.91;52130.13;4991555;28;20001;-76
2022/05/19 08:01:01;;;;;;;;;;;;;;;-144.99;54.59;52117.91;4991233;28;19929;-75
2022/05/19 08:03:29;;;;;;;;;;;;;;;-144.99;54.82;52134.22;4991042;28;19930;-75
2022/05/19 08:05:56;;;;;;;;;;;;;;;-144.99;55.19;52140.31;4989956;28;20012;-74
2022/05/19 08:08:22;;;;;;;;;;;;;;;-144.99;54.99;52154.59;4990966;28;19933;-76
2022/05/19 08:10:48;;;;;;;;;;;;;;;-144.99;55.17;52158.66;4991029;28;19929;-75
2022/05/19 08:16:00;;;;;;;;;;;;;;;-144.99;54.68;52126.06;4991378;28;19991;-74
2022/05/19 08:18:27;;;;;;;;;;;;;;;-144.99;54.61;52121.97;4987224;28;20039;-75
2022/05/19 08:20:56;;;;;;;;;;;;;;;-144.99;54.31;52134.22;4991767;28;19942;-75
2022/05/19 08:23:23;;;;;;;;;;;;;;;-144.99;54.70;52130.13;4982997;28;20294;-75
2022/05/19 08:25:50;;;;;;;;;;;;;;;-144.99;53.63;52077.16;4982761;28;19930;-77
2022/05/19 08:28:17;;;;;;;;;;;;;;;-144.99;52.63;52138.28;4990534;28;19953;-76
2022/05/19 08:30:44;;;;;;;;;;;;;;;-144.99;52.58;52107.72;4989613;28;20014;-76
2022/05/19 08:33:11;;;;;;;;;;;;;;;-144.99;52.57;52109.75;4990158;28;19926;-76
2022/05/19 08:35:38;;;;;;;;;;;;;;;-144.99;52.49;52113.84;4989119;28;19940;-75
2022/05/19 08:38:04;;;;;;;;;;;;;;;-144.99;51.50;52117.91;4990329;28;19926;-78
2022/05/19 08:40:33;;;;;;;;;;;;;;;-144.99;51.52;52132.19;4991187;28;20038;-76
2022/05/19 08:43:01;;;;;;;;;;;;;;;-144.99;51.05;52105.69;4991479;28;19937;-76
2022/05/19 08:45:29;;;;;;;;;;;;;;;-144.99;49.51;52097.53;5000955;28;19930;-76
2022/05/19 08:48:01;;;;;;;;;;;;;;;-144.99;49.44;52091.41;5006109;28;20005;-74
2022/05/19 08:50:35;;;;;;;;;;;;;;;-144.99;48.55;52066.97;4989565;28;19953;-77
2022/05/19 08:53:03;;;;;;;;;;;;;;;-144.99;49.13;52089.38;4988619;28;20299;-76
2022/05/19 08:55:30;;;;;;;;;;;;;;;-144.99;49.33;52095.50;4990279;28;20362;-77
2022/05/19 08:58:02;;;;;;;;;;;;;;;-144.99;48.21;52073.06;4986361;28;19937;-75
2022/05/19 09:00:33;;;;;;;;;;;;;;;-144.99;48.62;52060.84;4990197;28;20328;-76
2022/05/19 09:03:05;;;;;;;;;;;;;;;-144.99;47.43;52054.72;4990078;28;20332;-76
2022/05/19 09:05:43;;;;;;;;;;;;;;;-144.99;46.77;52087.34;4983863;28;20454;-80
2022/05/19 09:08:14;;;;;;;;;;;;;;;-144.99;46.19;52038.44;4986523;28;19925;-76
2022/05/19 09:10:45;;;;;;;;;;;;;;;-144.99;46.08;52083.25;4989843;28;19938;-74
2022/05/19 09:13:16;;;;;;;;;;;;;;;-144.99;45.86;52056.78;4989593;28;20222;-74
2022/05/19 09:15:44;;;;;;;;;;;;;;;-144.99;44.15;52028.22;4983493;28;19961;-74
2022/05/19 09:18:10;;;;;;;;;;;;;;;-144.99;44.55;52016.00;4989271;28;19937;-76
2022/05/19 09:20:42;;;;;;;;;;;;;;;-144.99;44.33;52024.16;4989893;28;20309;-76
2022/05/19 09:23:08;;;;;;;;;;;;;;;-144.99;43.20;52032.31;4987775;28;20552;-77
2022/05/19 09:25:37;;;;;;;;;;;;;;;-144.99;43.02;51999.69;4981459;28;19930;-77
2022/05/19 09:28:04;;;;;;;;;;;;;;;-144.99;42.51;52044.53;4989150;28;20309;-76
2022/05/19 09:30:34;;;;;;;;;;;;;;;-144.99;42.13;52064.91;4986317;28;19934;-75
2022/05/19 09:33:05;;;;;;;;;;;;;;;-144.99;41.98;52032.31;4988297;28;20236;-74
2022/05/19 09:35:37;;;;;;;;;;;;;;;-144.99;42.20;51975.25;4983942;28;20321;-75
2022/05/19 09:38:12;;;;;;;;;;;;;;;-144.99;41.58;52044.53;4989309;28;20073;-75
2022/05/19 09:40:40;;;;;;;;;;;;;;;-144.99;41.93;52028.22;4984797;28;19926;-76
2022/05/19 09:43:10;;;;;;;;;;;;;;;-144.99;41.75;52007.84;4986750;28;19930;-75
2022/05/19 09:45:38;;;;;;;;;;;;;;;-144.99;42.07;52028.22;4989039;28;20324;-77
2022/05/19 09:48:06;;;;;;;;;;;;;;;-144.99;41.75;52020.09;4985587;28;19929;-76
2022/05/19 09:50:37;;;;;;;;;;;;;;;-144.99;42.13;52042.50;4989548;28;20117;-76
2022/05/19 09:53:05;;;;;;;;;;;;;;;-144.99;42.27;52046.56;4985360;28;20309;-75
2022/05/19 09:55:39;;;;;;;;;;;;;;;-144.99;42.27;52069.00;4988710;28;20191;-75
2022/05/19 09:58:07;;;;;;;;;;;;;;;-144.99;42.48;52052.69;4988959;28;19925;-76
2022/05/19 10:00:36;;;;;;;;;;;;;;;-144.99;42.07;52042.50;4989058;28;19929;-76
2022/05/19 10:03:04;;;;;;;;;;;;;;;-144.99;42.17;52050.66;4988573;28;20088;-75
2022/05/19 10:05:36;;;;;;;;;;;;;;;-144.99;42.44;52036.38;4985790;28;20374;-78
2022/05/19 10:08:05;;;;;;;;;;;;;;;-144.99;42.79;52032.31;4988449;28;20397;-77
2022/05/19 10:10:35;;;;;;;;;;;;;;;-144.99;42.82;52042.50;4989394;28;20396;-76
2022/05/19 10:13:03;;;;;;;;;;;;;;;-144.99;43.43;52081.22;4988967;28;19937;-76
2022/05/19 10:15:44;;;;;;;;;;;;;;;-144.99;43.80;52064.91;4988416;28;19937;-75
2022/05/19 10:18:16;;;;;;;;;;;;;;;-144.99;44.12;52077.16;4984235;28;20411;-74
2022/05/19 10:20:45;;;;;;;;;;;;;;;-144.99;44.08;52038.44;4983782;28;20436;-75
2022/05/19 10:23:17;;;;;;;;;;;;;;;-144.99;43.58;52069.00;4986319;28;19936;-76
2022/05/19 10:25:53;;;;;;;;;;;;;;;-144.99;43.70;52058.81;4989734;28;19926;-81
2022/05/19 10:31:14;;;;;;;;;;;;;;;-144.99;43.19;52048.63;4991523;28;20320;-80
2022/05/19 10:33:53;;;;;;;;;;;;;;;-144.99;43.41;52064.91;4987204;28;20343;-79
2022/05/19 10:36:26;;;;;;;;;;;;;;;-144.99;43.77;52054.72;4997167;28;19936;-78
2022/05/19 10:39:01;;;;;;;;;;;;;;;-144.99;43.82;52069.00;4984629;28;19926;-80
2022/05/19 10:41:35;;;;;;;;;;;;;;;-144.99;44.13;52022.13;4991690;28;19932;-83
2022/05/19 10:44:11;;;;;;;;;;;;;;;-144.99;43.86;51971.16;4990084;28;20281;-80
2022/05/19 10:46:45;;;;;;;;;;;;;;;-144.99;44.10;52003.78;4977589;28;19930;-80
2022/05/19 10:49:17;;;;;;;;;;;;;;;-144.99;44.34;51979.31;4992730;28;19930;-80
2022/05/19 10:51:50;;;;;;;;;;;;;;;-144.99;42.75;52016.00;4986430;28;19953;-79
2022/05/19 10:54:24;;;;;;;;;;;;;;;-144.99;42.31;51979.31;4983884;28;20352;-79
2022/05/19 10:57:06;;;;;;;;;;;;;;;-144.99;42.13;52001.75;4983174;28;19930;-80
2022/05/19 10:59:43;;;;;;;;;;;;;;;-144.99;42.06;52024.16;4983599;28;20361;-78
2022/05/19 11:02:20;;;;;;;;;;;;;;;-144.99;43.20;51991.56;4987117;28;19933;-78
2022/05/19 11:04:54;;;;;;;;;;;;;;;-144.99;42.42;52024.16;4999152;28;21324;-81
2022/05/19 11:07:30;;;;;;;;;;;;;;;-144.99;42.06;52040.47;4977996;28;20013;-78
2022/05/19 11:10:01;;;;;;;;;;;;;;;-144.99;42.13;52020.09;4983356;28;19937;-78
2022/05/19 11:12:32;;;;;;;;;;;;;;;-144.99;42.06;52052.69;4977756;28;19949;-79
2022/05/19 11:15:06;;;;;;;;;;;;;;;-144.99;42.33;51987.47;4987448;28;19929;-78
2022/05/19 11:17:41;;;;;;;;;;;;;;;-144.99;42.29;52032.31;4988909;28;19933;-79
2022/05/19 11:20:13;;;;;;;;;;;;;;;-144.99;42.29;51973.22;4987338;28;19929;-77
2022/05/19 11:22:40;;;;;;;;;;;;;;;-144.99;41.14;51987.47;4988068;28;20443;-78
2022/05/19 11:27:55;;;;;;;;;;;;;;;-144.99;40.40;51958.94;4954901;28;19930;-79
2022/05/19 11:30:23;;;;;;;;;;;;;;;-144.99;40.63;51936.53;4989533;28;20699;-77
2022/05/19 11:32:56;;;;;;;;;;;;;;;-144.99;40.68;51971.16;4989381;28;19941;-79
2022/05/19 11:35:25;;;;;;;;;;;;;;;-144.99;41.08;51975.25;4988831;28;19925;-78
2022/05/19 11:37:55;;;;;;;;;;;;;;;-144.99;40.70;51967.09;4994255;28;20356;-81
2022/05/19 11:40:25;;;;;;;;;;;;;;;-144.99;40.38;51971.16;4991442;28;19957;-88
2022/05/19 11:43:04;;;;;;;;;;;;;;;-144.99;40.58;51910.03;4998322;28;19929;-81
2022/05/19 11:45:34;;;;;;;;;;;;;;;-144.99;40.16;51905.97;4992954;28;19929;-79
2022/05/19 11:56:21;;;;;;;;;;;;;;;-144.99;38.75;51938.56;5012132;28;20032;-86
2022/05/19 11:58:49;;;;;;;;;;;;;;;-144.99;38.77;51895.75;5008167;28;19918;-87
2022/05/19 12:01:20;;;;;;;;;;;;;;;-144.99;38.21;51918.19;5018963;28;19939;-88
2022/05/19 12:03:58;;;;;;;;;;;;;;;-144.99;38.12;51918.19;5009859;28;19913;-90
2022/05/19 12:06:28;;;;;;;;;;;;;;;-144.99;38.70;51918.19;5006282;28;19969;-87
2022/05/19 12:08:56;;;;;;;;;;;;;;;-144.99;38.39;51885.56;5011957;28;19914;-87
2022/05/19 12:11:24;;;;;;;;;;;;;;;-144.99;38.79;51938.56;5012789;28;19924;-85
2022/05/19 12:13:53;;;;;;;;;;;;;;;-144.99;38.92;51979.31;5015246;28;19949;-85
2022/05/19 12:16:24;;;;;;;;;;;;;;;-144.99;38.53;51975.25;5015556;28;19974;-88
2022/05/19 12:19:01;;;;;;;;;;;;;;;-144.99;39.30;52007.84;5017181;28;19924;-87
2022/05/19 12:21:39;;;;;;;;;;;;;;;-144.99;39.58;51995.63;5005154;28;19934;-81
2022/05/19 12:24:08;;;;;;;;;;;;;;;-144.99;39.54;52016.00;5016835;28;19924;-83
2022/05/19 12:26:38;;;;;;;;;;;;;;;-144.99;38.64;51979.31;5013862;28;20741;-87
2022/05/19 12:29:16;;;;;;;;;;;;;;;-144.99;38.89;51967.09;5004550;28;19914;-85
2022/05/19 12:31:59;;;;;;;;;;;;;;;-144.99;38.97;51971.16;5011437;28;19953;-86
2022/05/19 12:34:31;;;;;;;;;;;;;;;-144.99;41.02;52046.56;5009569;28;19936;-87
2022/05/19 12:37:07;;;;;;;;;;;;;;;-144.99;41.73;52028.22;5012664;28;19913;-82
2022/05/19 12:39:44;;;;;;;;;;;;;;;-144.99;42.11;51989.50;5016437;28;19952;-77
2022/05/19 12:42:17;;;;;;;;;;;;;;;-144.99;42.28;51991.56;5013212;28;19989;-83
2022/05/19 12:44:50;;;;;;;;;;;;;;;-144.99;42.07;51963.03;5005347;28;19941;-81
2022/05/19 12:47:22;;;;;;;;;;;;;;;-144.99;42.17;51997.66;5010657;28;19924;-83
2022/05/19 12:50:15;;;;;;;;;;;;;;;-144.99;42.54;52024.16;5013393;28;19918;-83
2022/05/19 12:52:54;;;;;;;;;;;;;;;-144.99;43.33;51991.56;4981527;28;19936;-89